Time;durP1;ratioP1;P1;durP2;ratioP2;P2;SDS_P1;SDS_P2;PMS_P1;PMS_P2;Temp;Humidity;BMP_temperature;BMP_pressure;BME280_temperature;BME280_humidity;BME280_pressure;Samples;Min_cycle;Max_cycle;Signal;HPM_P1;HPM_P2
2022/10/09 00:01:19;;;;;;;0.10;0.10;;;7.80;99.90;;;;;;5028662;28;20262;-76
2022/10/09 00:03:49;;;;;;;0.10;0.10;;;7.90;99.90;;;;;;5019419;28;20192;-76
2022/10/09 00:06:20;;;;;;;0.10;0.10;;;7.90;99.90;;;;;;5006331;28;20227;-77
2022/10/09 00:08:48;;;;;;;0.10;0.10;;;7.80;99.90;;;;;;5019952;28;20191;-77
2022/10/09 00:11:20;;;;;;;0.10;0.10;;;7.70;99.90;;;;;;5014982;28;20547;-77
2022/10/09 00:13:50;;;;;;;0.10;0.10;;;7.70;99.90;;;;;;5014470;28;20196;-76
2022/10/09 00:16:20;;;;;;;0.10;0.10;;;7.70;99.90;;;;;;5015673;28;20242;-78
2022/10/09 00:18:48;;;;;;;0.10;0.10;;;7.60;99.90;;;;;;5007349;28;20212;-78
2022/10/09 00:21:21;;;;;;;0.10;0.10;;;7.70;99.90;;;;;;5017911;28;20262;-78
2022/10/09 00:23:51;;;;;;;0.10;0.10;;;7.70;99.90;;;;;;5016817;28;20210;-78
2022/10/09 00:26:20;;;;;;;0.10;0.10;;;7.70;99.90;;;;;;5020656;28;20204;-77
2022/10/09 00:28:48;;;;;;;0.10;0.10;;;7.60;99.90;;;;;;5017940;28;20219;-77
2022/10/09 00:31:17;;;;;;;0.10;0.10;;;7.60;99.90;;;;;;5019903;28;20220;-78
2022/10/09 00:33:46;;;;;;;0.10;0.10;;;7.60;99.90;;;;;;5021183;28;20217;-77
2022/10/09 00:36:16;;;;;;;0.10;0.10;;;7.50;99.90;;;;;;5016324;28;20200;-77
2022/10/09 00:38:44;;;;;;;0.10;0.10;;;7.50;99.90;;;;;;5015925;28;20219;-77
2022/10/09 00:41:15;;;;;;;0.10;0.10;;;7.30;99.90;;;;;;5013790;28;20203;-77
2022/10/09 00:43:46;;;;;;;0.10;0.10;;;7.10;99.90;;;;;;5012914;28;20265;-78
2022/10/09 00:46:33;;;;;;;0.00;0.00;;;7.00;99.90;;;;;;5014379;28;20204;-77
2022/10/09 00:49:09;;;;;;;0.10;0.10;;;7.00;99.90;;;;;;5008829;28;20215;-76
2022/10/09 00:51:38;;;;;;;0.10;0.10;;;7.00;99.90;;;;;;5011476;28;20207;-77
2022/10/09 00:54:11;;;;;;;0.10;0.10;;;7.00;99.90;;;;;;5015668;28;20207;-76
2022/10/09 00:56:39;;;;;;;0.10;0.10;;;7.00;99.90;;;;;;5014139;28;20208;-77
2022/10/09 00:59:09;;;;;;;0.10;0.10;;;6.90;99.90;;;;;;5011651;28;20273;-77
2022/10/09 01:01:38;;;;;;;0.10;0.10;;;6.90;99.90;;;;;;5016441;28;20203;-78
2022/10/09 01:04:07;;;;;;;0.10;0.10;;;6.80;99.90;;;;;;5019437;28;20208;-78
2022/10/09 01:06:49;;;;;;;0.10;0.10;;;6.80;99.90;;;;;;5013165;28;20242;-78
2022/10/09 01:09:21;;;;;;;0.10;0.10;;;6.90;99.90;;;;;;5013793;28;20231;-78
2022/10/09 01:11:55;;;;;;;0.10;0.10;;;6.90;99.90;;;;;;5013609;28;20207;-78
2022/10/09 01:14:28;;;;;;;0.10;0.10;;;6.90;99.90;;;;;;5011434;28;20249;-78
2022/10/09 01:17:02;;;;;;;0.10;0.10;;;6.80;99.90;;;;;;5013171;28;20618;-78
2022/10/09 01:19:56;;;;;;;0.10;0.10;;;6.90;99.90;;;;;;5013345;28;20235;-77
2022/10/09 01:22:39;;;;;;;0.10;0.10;;;6.90;99.90;;;;;;5009025;28;20199;-79
2022/10/09 01:25:13;;;;;;;0.10;0.10;;;6.80;99.90;;;;;;5010918;28;20231;-79
2022/10/09 01:27:43;;;;;;;0.10;0.10;;;6.80;99.90;;;;;;5013183;28;20735;-76
2022/10/09 01:30:12;;;;;;;0.10;0.10;;;6.70;99.90;;;;;;5013361;28;20217;-77
2022/10/09 01:32:43;;;;;;;0.10;0.10;;;6.70;99.90;;;;;;5014864;28;20602;-78
2022/10/09 01:35:14;;;;;;;0.00;0.00;;;6.60;99.90;;;;;;5012397;28;20678;-78
2022/10/09 01:37:44;;;;;;;0.10;0.10;;;6.70;99.90;;;;;;5013330;28;20965;-78
2022/10/09 01:40:14;;;;;;;0.10;0.10;;;6.80;99.90;;;;;;5018017;28;20667;-78
2022/10/09 01:42:45;;;;;;;0.10;0.10;;;6.70;99.90;;;;;;5013405;28;20253;-78
2022/10/09 01:45:14;;;;;;;0.10;0.10;;;6.70;99.90;;;;;;5012315;28;20223;-78
2022/10/09 01:47:43;;;;;;;0.10;0.10;;;6.60;99.90;;;;;;5003456;28;20645;-76
2022/10/09 01:50:18;;;;;;;0.10;0.10;;;6.60;99.90;;;;;;5007322;28;20258;-77
2022/10/09 01:52:49;;;;;;;0.10;0.10;;;6.50;99.90;;;;;;5013757;28;20670;-77
2022/10/09 01:55:35;;;;;;;0.10;0.10;;;6.50;99.90;;;;;;5020944;28;20212;-78
2022/10/09 01:58:10;;;;;;;0.10;0.10;;;6.40;99.90;;;;;;4994825;28;20687;-76
2022/10/09 02:00:43;;;;;;;0.10;0.10;;;6.40;99.90;;;;;;5010598;28;20273;-78
2022/10/09 02:03:15;;;;;;;0.05;0.05;;;6.50;99.90;;;;;;5014675;28;20269;-76
2022/10/09 02:05:46;;;;;;;0.10;0.10;;;6.40;99.90;;;;;;5011726;28;20199;-75
2022/10/09 02:08:17;;;;;;;0.10;0.10;;;6.40;99.90;;;;;;5013130;28;20204;-79
2022/10/09 02:10:46;;;;;;;0.10;0.10;;;6.30;99.90;;;;;;5018218;28;20240;-77
2022/10/09 02:13:16;;;;;;;0.10;0.10;;;6.30;99.90;;;;;;5010990;28;20200;-77
2022/10/09 02:15:51;;;;;;;0.10;0.10;;;6.30;99.90;;;;;;5011731;28;20238;-78
2022/10/09 02:18:25;;;;;;;0.10;0.10;;;6.20;99.90;;;;;;5013935;28;20192;-77
2022/10/09 02:20:58;;;;;;;0.10;0.10;;;5.90;99.90;;;;;;5003994;28;20246;-78
2022/10/09 02:23:28;;;;;;;0.10;0.10;;;5.70;99.90;;;;;;5009644;28;20210;-78
2022/10/09 02:25:57;;;;;;;0.10;0.10;;;5.60;99.90;;;;;;5012745;28;20258;-77
2022/10/09 02:28:26;;;;;;;0.10;0.10;;;5.50;99.90;;;;;;5012793;28;20497;-78
2022/10/09 02:31:01;;;;;;;0.10;0.10;;;5.50;99.90;;;;;;5011849;28;20254;-77
2022/10/09 02:33:32;;;;;;;0.10;0.10;;;5.50;99.90;;;;;;5010436;28;20693;-77
2022/10/09 02:36:00;;;;;;;0.10;0.10;;;5.50;99.90;;;;;;5015636;28;20199;-78
2022/10/09 02:38:29;;;;;;;0.10;0.10;;;5.50;99.90;;;;;;5026556;28;20215;-77
2022/10/09 02:40:58;;;;;;;0.10;0.10;;;5.60;99.90;;;;;;5005187;28;20223;-78
2022/10/09 02:43:28;;;;;;;0.10;0.10;;;5.60;99.90;;;;;;5011811;28;20203;-78
2022/10/09 02:45:56;;;;;;;0.10;0.10;;;5.70;99.90;;;;;;5012307;28;20253;-78
2022/10/09 02:48:24;;;;;;;0.10;0.10;;;5.80;99.90;;;;;;5011918;28;20199;-77
2022/10/09 02:50:52;;;;;;;0.10;0.10;;;5.90;99.90;;;;;;5011075;28;20706;-77
2022/10/09 02:53:20;;;;;;;0.10;0.10;;;5.80;99.90;;;;;;5002640;28;20624;-77
2022/10/09 02:55:48;;;;;;;0.10;0.10;;;5.70;99.90;;;;;;5003405;28;20201;-78
2022/10/09 02:58:15;;;;;;;0.10;0.10;;;5.70;99.90;;;;;;5010420;28;20659;-77
2022/10/09 03:00:48;;;;;;;0.10;0.10;;;5.50;99.90;;;;;;5007306;28;20213;-78
2022/10/09 03:03:16;;;;;;;0.10;0.10;;;5.20;99.90;;;;;;5006435;28;20231;-77
2022/10/09 03:05:44;;;;;;;0.10;0.10;;;5.20;99.90;;;;;;5031393;28;20203;-76
2022/10/09 03:08:12;;;;;;;0.10;0.10;;;5.30;99.90;;;;;;4996761;28;20260;-77
2022/10/09 03:10:40;;;;;;;0.10;0.10;;;5.30;99.90;;;;;;5008674;28;20286;-77
2022/10/09 03:13:09;;;;;;;0.00;0.00;;;5.20;99.90;;;;;;5011614;28;20195;-77
2022/10/09 03:15:37;;;;;;;0.10;0.10;;;5.20;99.90;;;;;;5009814;28;21029;-77
2022/10/09 03:18:06;;;;;;;0.10;0.10;;;5.20;99.90;;;;;;4995425;28;20697;-76
2022/10/09 03:20:34;;;;;;;0.10;0.10;;;5.20;99.90;;;;;;5008334;28;20285;-75
2022/10/09 03:23:02;;;;;;;0.10;0.10;;;5.30;99.90;;;;;;5008045;28;20212;-75
2022/10/09 03:25:30;;;;;;;0.10;0.10;;;5.20;99.90;;;;;;5011081;28;20212;-75
2022/10/09 03:27:58;;;;;;;0.10;0.10;;;5.20;99.90;;;;;;4997849;28;20196;-75
2022/10/09 03:30:26;;;;;;;0.10;0.10;;;5.30;99.90;;;;;;5016284;28;20231;-75
2022/10/09 03:32:54;;;;;;;0.10;0.10;;;5.20;99.90;;;;;;5022200;28;20199;-74
2022/10/09 03:35:23;;;;;;;0.03;0.03;;;5.10;99.90;;;;;;5020188;28;20196;-75
2022/10/09 03:37:51;;;;;;;0.10;0.10;;;5.00;99.90;;;;;;5017314;28;20282;-75
2022/10/09 03:40:19;;;;;;;0.10;0.10;;;5.10;99.90;;;;;;5015337;28;20267;-75
2022/10/09 03:42:47;;;;;;;0.10;0.10;;;5.10;99.90;;;;;;5016712;28;20257;-75
2022/10/09 03:45:15;;;;;;;0.10;0.10;;;5.10;99.90;;;;;;5021655;28;20200;-76
2022/10/09 03:47:43;;;;;;;0.10;0.10;;;5.00;99.90;;;;;;5016678;28;20208;-75
2022/10/09 03:50:11;;;;;;;0.10;0.10;;;5.00;99.90;;;;;;5020814;28;20770;-75
2022/10/09 03:52:40;;;;;;;0.10;0.10;;;5.00;99.90;;;;;;5012751;28;20726;-76
2022/10/09 03:55:09;;;;;;;0.10;0.10;;;4.90;99.90;;;;;;5028431;28;20198;-76
2022/10/09 03:57:37;;;;;;;0.10;0.10;;;4.90;99.90;;;;;;5034753;28;20697;-76
2022/10/09 04:00:06;;;;;;;0.10;0.10;;;4.80;99.90;;;;;;5020002;28;20224;-75
2022/10/09 04:02:34;;;;;;;0.10;0.10;;;4.90;99.90;;;;;;5011850;28;20253;-76
2022/10/09 04:05:03;;;;;;;0.10;0.10;;;4.90;99.90;;;;;;5025198;28;20211;-77
2022/10/09 04:07:31;;;;;;;0.10;0.10;;;4.90;99.90;;;;;;5034474;28;20199;-76
2022/10/09 04:10:00;;;;;;;0.10;0.10;;;4.90;99.90;;;;;;5021566;28;20227;-75
2022/10/09 04:12:28;;;;;;;0.10;0.10;;;4.90;99.90;;;;;;5014542;28;20215;-76
2022/10/09 04:14:56;;;;;;;0.10;0.10;;;4.90;99.90;;;;;;5014310;28;20246;-75
2022/10/09 04:17:24;;;;;;;0.10;0.10;;;4.90;99.90;;;;;;5014507;28;20199;-76
2022/10/09 04:19:51;;;;;;;0.10;0.10;;;4.70;99.90;;;;;;5056299;22;20319;-74
2022/10/09 04:22:19;;;;;;;0.10;0.10;;;4.80;99.90;;;;;;5054158;28;20195;-74
2022/10/09 04:24:47;;;;;;;0.10;0.10;;;4.80;99.90;;;;;;5043685;28;20658;-71
2022/10/09 04:27:17;;;;;;;0.10;0.10;;;4.70;99.90;;;;;;5039988;28;20232;-72
2022/10/09 04:29:44;;;;;;;0.10;0.10;;;4.60;99.90;;;;;;5048908;28;20321;-72
2022/10/09 04:32:12;;;;;;;0.10;0.10;;;4.50;99.90;;;;;;5034372;28;20223;-72
2022/10/09 04:34:40;;;;;;;0.10;0.10;;;4.50;99.90;;;;;;5034308;28;20195;-72
2022/10/09 04:37:08;;;;;;;0.08;0.08;;;4.60;99.90;;;;;;5033473;28;20207;-72
2022/10/09 04:39:36;;;;;;;0.10;0.10;;;4.60;99.90;;;;;;5034305;28;20278;-74
2022/10/09 04:42:05;;;;;;;0.10;0.10;;;4.70;99.90;;;;;;5040656;28;20581;-72
2022/10/09 04:44:34;;;;;;;0.10;0.10;;;4.70;99.90;;;;;;5044008;28;20249;-72
2022/10/09 04:47:02;;;;;;;0.10;0.10;;;4.70;99.90;;;;;;5036998;28;20207;-72
2022/10/09 04:49:30;;;;;;;0.10;0.10;;;4.80;99.90;;;;;;5033191;28;20232;-72
2022/10/09 04:51:57;;;;;;;0.10;0.10;;;4.80;99.90;;;;;;5034091;28;20281;-71
2022/10/09 04:54:25;;;;;;;0.00;0.00;;;4.70;99.90;;;;;;5035313;28;20200;-72
2022/10/09 04:56:54;;;;;;;0.10;0.10;;;4.70;99.90;;;;;;5014226;28;20191;-72
2022/10/09 04:59:22;;;;;;;0.10;0.10;;;4.80;99.90;;;;;;5023618;28;20199;-72
2022/10/09 05:01:51;;;;;;;0.10;0.10;;;4.70;99.90;;;;;;5028547;28;20285;-71
2022/10/09 05:04:19;;;;;;;0.10;0.10;;;4.70;99.90;;;;;;5032234;28;20629;-74
2022/10/09 05:06:47;;;;;;;0.10;0.10;;;4.70;99.90;;;;;;5032154;28;20732;-72
2022/10/09 05:09:14;;;;;;;0.10;0.10;;;4.70;99.90;;;;;;5025881;28;20740;-71
2022/10/09 05:11:42;;;;;;;0.10;0.10;;;4.70;99.90;;;;;;5029709;28;20249;-72
2022/10/09 05:14:10;;;;;;;0.10;0.10;;;4.80;99.90;;;;;;5022693;28;20253;-72
2022/10/09 05:16:38;;;;;;;0.10;0.10;;;4.70;99.90;;;;;;5033343;28;20245;-72
2022/10/09 05:19:28;;;;;;;0.10;0.10;;;4.70;99.90;;;;;;5031864;28;20257;-72
2022/10/09 05:21:55;;;;;;;0.10;0.10;;;4.70;99.90;;;;;;5031060;28;20222;-74
2022/10/09 05:24:23;;;;;;;0.10;0.10;;;4.70;99.90;;;;;;5034703;28;20199;-75
2022/10/09 05:26:52;;;;;;;0.10;0.10;;;4.70;99.90;;;;;;5033332;28;20257;-72
2022/10/09 05:29:20;;;;;;;0.10;0.10;;;4.60;99.90;;;;;;5044153;28;20222;-73
2022/10/09 05:31:48;;;;;;;0.10;0.10;;;4.60;99.90;;;;;;5035605;28;20207;-72
2022/10/09 05:34:16;;;;;;;0.10;0.10;;;4.60;99.90;;;;;;5052336;28;20281;-73
2022/10/09 05:36:45;;;;;;;0.10;0.10;;;4.60;99.90;;;;;;5055380;28;20237;-72
2022/10/09 05:39:13;;;;;;;0.10;0.10;;;4.60;99.90;;;;;;5044982;28;20230;-72
2022/10/09 05:41:41;;;;;;;0.10;0.10;;;4.60;99.90;;;;;;5031878;28;20261;-73
2022/10/09 05:44:10;;;;;;;0.10;0.10;;;4.60;99.90;;;;;;5037650;28;20194;-72
2022/10/09 05:46:38;;;;;;;0.10;0.10;;;4.60;99.90;;;;;;5052494;28;20202;-72
2022/10/09 05:49:06;;;;;;;0.10;0.10;;;4.60;99.90;;;;;;5042060;28;20198;-72
2022/10/09 05:51:36;;;;;;;0.10;0.10;;;4.50;99.90;;;;;;5031077;28;20203;-73
2022/10/09 05:54:06;;;;;;;0.10;0.10;;;4.40;99.90;;;;;;5032498;28;20219;-72
2022/10/09 05:56:37;;;;;;;0.10;0.10;;;4.50;99.90;;;;;;5032148;28;20686;-74
2022/10/09 05:59:06;;;;;;;0.10;0.10;;;4.40;99.90;;;;;;5024633;28;20202;-71
2022/10/09 06:01:36;;;;;;;0.10;0.10;;;4.50;99.90;;;;;;5029243;28;20203;-71
2022/10/09 06:04:08;;;;;;;0.10;0.10;;;4.50;99.90;;;;;;5035701;28;20206;-71
2022/10/09 06:06:37;;;;;;;0.10;0.10;;;4.50;99.90;;;;;;5029840;28;20341;-72
2022/10/09 06:09:08;;;;;;;0.10;0.10;;;4.60;99.90;;;;;;5032955;28;20677;-72
2022/10/09 06:11:38;;;;;;;0.10;0.10;;;4.70;99.90;;;;;;5030260;28;20291;-73
2022/10/09 06:14:08;;;;;;;0.10;0.10;;;4.70;99.90;;;;;;5037466;28;20253;-73
2022/10/09 06:16:38;;;;;;;0.10;0.10;;;4.60;99.90;;;;;;5034322;28;20207;-73
2022/10/09 06:19:07;;;;;;;0.10;0.10;;;4.40;99.90;;;;;;5030371;28;20206;-73
2022/10/09 06:21:35;;;;;;;0.10;0.10;;;4.50;99.90;;;;;;5027501;28;20691;-73
2022/10/09 06:24:05;;;;;;;0.10;0.10;;;4.50;99.90;;;;;;5034074;28;20198;-72
2022/10/09 06:26:34;;;;;;;0.10;0.10;;;4.50;99.90;;;;;;5032158;28;20256;-74
2022/10/09 06:29:03;;;;;;;0.10;0.10;;;4.40;99.90;;;;;;5031780;28;20237;-73
2022/10/09 06:31:32;;;;;;;0.10;0.10;;;4.30;99.90;;;;;;5031257;28;20226;-73
2022/10/09 06:34:02;;;;;;;0.10;0.10;;;4.30;99.90;;;;;;5034419;28;20252;-72
2022/10/09 06:36:32;;;;;;;0.10;0.10;;;4.40;99.90;;;;;;5030925;28;20194;-72
2022/10/09 06:39:00;;;;;;;0.10;0.10;;;4.40;99.90;;;;;;5026351;28;21044;-72
2022/10/09 06:41:30;;;;;;;0.10;0.10;;;4.40;99.90;;;;;;5028667;28;20208;-73
2022/10/09 06:44:00;;;;;;;0.10;0.10;;;4.40;99.90;;;;;;5031972;28;20206;-72
2022/10/09 06:46:31;;;;;;;0.10;0.10;;;4.50;99.90;;;;;;5028379;28;20191;-78
2022/10/09 06:48:59;;;;;;;0.10;0.10;;;4.30;99.90;;;;;;5031717;28;20285;-73
2022/10/09 06:51:39;;;;;;;0.10;0.10;;;4.40;99.90;;;;;;5030668;28;20207;-72
2022/10/09 06:54:11;;;;;;;0.10;0.10;;;4.50;99.90;;;;;;5031359;28;20210;-72
2022/10/09 06:56:41;;;;;;;0.10;0.10;;;4.60;99.90;;;;;;5030037;28;20210;-73
2022/10/09 06:59:10;;;;;;;0.10;0.10;;;4.70;99.90;;;;;;5032254;28;20227;-75
2022/10/09 07:01:38;;;;;;;0.10;0.10;;;4.80;99.90;;;;;;5031299;28;20545;-72
2022/10/09 07:04:09;;;;;;;0.05;0.05;;;4.90;99.90;;;;;;5030650;28;20548;-72
2022/10/09 07:06:39;;;;;;;0.10;0.10;;;4.90;99.90;;;;;;5030233;28;20252;-73
2022/10/09 07:09:09;;;;;;;0.10;0.10;;;5.00;99.90;;;;;;5031843;28;20202;-72
2022/10/09 07:11:39;;;;;;;0.00;0.00;;;5.10;99.90;;;;;;5033019;28;20301;-72
2022/10/09 07:14:10;;;;;;;0.10;0.10;;;5.10;99.90;;;;;;5036682;28;20296;-72
2022/10/09 07:16:40;;;;;;;0.10;0.10;;;5.20;99.90;;;;;;5029923;28;20216;-72
2022/10/09 07:19:10;;;;;;;0.10;0.10;;;5.30;99.90;;;;;;5030139;28;20203;-73
2022/10/09 07:21:40;;;;;;;0.10;0.10;;;5.30;99.90;;;;;;5030923;28;20207;-73
2022/10/09 07:24:08;;;;;;;0.10;0.10;;;5.30;99.90;;;;;;5037598;28;20576;-73
2022/10/09 07:26:39;;;;;;;0.10;0.10;;;5.20;99.90;;;;;;5031364;28;20237;-73
2022/10/09 07:29:09;;;;;;;0.10;0.10;;;5.20;99.90;;;;;;5028027;28;20727;-72
2022/10/09 07:31:38;;;;;;;0.10;0.10;;;5.20;99.90;;;;;;5033591;28;20253;-72
2022/10/09 07:34:06;;;;;;;0.05;0.05;;;5.20;99.90;;;;;;5036016;28;20241;-73
2022/10/09 07:36:35;;;;;;;0.10;0.10;;;5.30;99.90;;;;;;5033707;28;20195;-72
2022/10/09 07:39:04;;;;;;;0.10;0.10;;;5.30;99.90;;;;;;5033769;28;20214;-73
2022/10/09 07:41:32;;;;;;;0.10;0.10;;;5.30;99.90;;;;;;5032895;28;20241;-74
2022/10/09 07:44:00;;;;;;;0.00;0.00;;;5.40;99.90;;;;;;5032838;28;20265;-73
2022/10/09 07:46:28;;;;;;;0.00;0.00;;;5.40;99.90;;;;;;5022546;28;20266;-72
2022/10/09 07:49:02;;;;;;;0.10;0.10;;;5.50;99.90;;;;;;5012861;28;20203;-73
2022/10/09 07:51:32;;;;;;;0.10;0.10;;;5.50;99.90;;;;;;5022998;28;20249;-72
2022/10/09 07:54:00;;;;;;;0.10;0.10;;;5.60;99.90;;;;;;5033183;28;20264;-73
2022/10/09 07:56:31;;;;;;;0.10;0.10;;;5.70;99.90;;;;;;5031458;28;20211;-72
2022/10/09 07:59:01;;;;;;;0.10;0.10;;;5.80;99.90;;;;;;5034760;28;20238;-73
2022/10/09 08:01:30;;;;;;;0.10;0.10;;;5.70;99.90;;;;;;5032050;28;20203;-75
2022/10/09 08:03:59;;;;;;;0.10;0.10;;;5.80;99.90;;;;;;5032088;28;20253;-72
2022/10/09 08:06:29;;;;;;;0.10;0.10;;;5.80;99.90;;;;;;5029444;28;20253;-73
2022/10/09 08:08:59;;;;;;;0.10;0.10;;;5.90;99.90;;;;;;5016412;28;20600;-75
2022/10/09 08:11:28;;;;;;;0.10;0.10;;;5.90;99.90;;;;;;5051000;28;20210;-72
2022/10/09 08:13:57;;;;;;;0.10;0.10;;;6.00;99.90;;;;;;5045244;28;20210;-73
2022/10/09 08:16:26;;;;;;;0.10;0.10;;;6.10;99.90;;;;;;5034626;28;20727;-76
2022/10/09 08:18:56;;;;;;;0.10;0.10;;;6.20;99.90;;;;;;5025180;28;20256;-73
2022/10/09 08:21:26;;;;;;;0.10;0.10;;;6.20;99.90;;;;;;5029525;28;20230;-73
2022/10/09 08:23:57;;;;;;;0.10;0.10;;;6.30;99.90;;;;;;5019813;28;20667;-73
2022/10/09 08:26:27;;;;;;;0.03;0.03;;;6.30;99.90;;;;;;5033774;28;20214;-73
2022/10/09 08:28:57;;;;;;;0.10;0.10;;;6.40;99.90;;;;;;5036259;28;20733;-72
2022/10/09 08:31:25;;;;;;;0.10;0.10;;;6.60;99.90;;;;;;5035255;28;20701;-73
2022/10/09 08:33:55;;;;;;;0.10;0.10;;;6.70;99.90;;;;;;5033317;28;20741;-73
2022/10/09 08:36:34;;;;;;;0.10;0.10;;;6.80;99.90;;;;;;5035657;28;20199;-73
2022/10/09 08:39:03;;;;;;;0.10;0.10;;;7.00;99.90;;;;;;5040025;28;20220;-75
2022/10/09 08:41:42;;;;;;;0.10;0.10;;;7.10;99.90;;;;;;5033937;28;20744;-73
2022/10/09 08:44:23;;;;;;;0.10;0.10;;;7.20;99.90;;;;;;5043061;28;20199;-73
2022/10/09 08:47:00;;;;;;;0.10;0.10;;;7.40;99.90;;;;;;5033920;28;20245;-73
2022/10/09 08:49:34;;;;;;;0.10;0.10;;;7.50;99.90;;;;;;5034723;28;20215;-73
2022/10/09 08:52:16;;;;;;;0.10;0.10;;;7.70;99.90;;;;;;5034571;28;20195;-76
2022/10/09 08:54:45;;;;;;;0.10;0.10;;;7.90;99.90;;;;;;5034110;28;20222;-73
2022/10/09 08:57:16;;;;;;;0.10;0.10;;;8.10;99.90;;;;;;5035229;28;20199;-73
2022/10/09 08:59:45;;;;;;;0.10;0.10;;;8.30;99.90;;;;;;5038639;28;20280;-76
2022/10/09 09:02:30;;;;;;;0.10;0.10;;;8.50;99.90;;;;;;5033804;28;20211;-76
2022/10/09 09:05:16;;;;;;;0.10;0.10;;;8.60;99.90;;;;;;5024727;28;20195;-73
2022/10/09 09:07:54;;;;;;;0.10;0.10;;;8.80;99.90;;;;;;5031725;28;20890;-72
2022/10/09 09:10:35;;;;;;;0.10;0.10;;;8.90;99.90;;;;;;5033079;28;20767;-72
2022/10/09 09:13:15;;;;;;;0.10;0.10;;;9.00;99.90;;;;;;5032434;28;20254;-73
2022/10/09 09:15:49;;;;;;;0.00;0.00;;;9.20;99.90;;;;;;5034301;28;20690;-73
2022/10/09 09:18:29;;;;;;;0.10;0.10;;;9.30;99.90;;;;;;5033712;28;20282;-73
2022/10/09 09:21:04;;;;;;;0.10;0.10;;;9.50;99.90;;;;;;5014051;28;20274;-73
2022/10/09 09:23:38;;;;;;;0.10;0.10;;;9.50;99.90;;;;;;5014788;28;20253;-73
2022/10/09 09:26:15;;;;;;;0.10;0.10;;;9.60;99.90;;;;;;5013690;28;20246;-73
2022/10/09 09:28:44;;;;;;;0.10;0.10;;;9.70;99.90;;;;;;5024055;28;20317;-72
2022/10/09 09:31:18;;;;;;;0.10;0.10;;;9.80;99.90;;;;;;5032850;28;20219;-72
2022/10/09 09:33:55;;;;;;;0.10;0.10;;;9.90;99.90;;;;;;5033052;28;20206;-73
2022/10/09 09:36:29;;;;;;;0.10;0.10;;;10.10;99.90;;;;;;5020575;28;20190;-73
2022/10/09 09:38:57;;;;;;;0.10;0.10;;;10.20;99.90;;;;;;5032901;28;20235;-72
2022/10/09 09:41:46;;;;;;;0.10;0.10;;;10.30;99.90;;;;;;5028617;28;20610;-73
2022/10/09 09:44:19;;;;;;;0.00;0.00;;;10.30;99.90;;;;;;5037287;28;20200;-72
2022/10/09 09:46:49;;;;;;;0.10;0.10;;;10.50;99.90;;;;;;5034633;28;20278;-72
2022/10/09 09:49:19;;;;;;;0.00;0.00;;;10.50;99.90;;;;;;5032992;28;20285;-75
2022/10/09 09:51:48;;;;;;;0.10;0.10;;;10.60;99.90;;;;;;5031962;28;20685;-72
2022/10/09 09:54:20;;;;;;;0.10;0.10;;;10.70;99.90;;;;;;5031915;28;20215;-76
2022/10/09 09:56:51;;;;;;;0.08;0.08;;;10.80;99.90;;;;;;5023505;28;20195;-72
2022/10/09 09:59:41;;;;;;;0.10;0.10;;;10.90;99.90;;;;;;5032369;28;20315;-72
2022/10/09 10:02:28;;;;;;;0.10;0.10;;;11.00;99.90;;;;;;5032766;28;20198;-72
2022/10/09 10:04:59;;;;;;;0.10;0.10;;;11.10;99.90;;;;;;5033008;28;20219;-72
2022/10/09 10:07:29;;;;;;;0.10;0.10;;;11.20;99.90;;;;;;5033225;28;20206;-73
2022/10/09 10:10:13;;;;;;;0.10;0.10;;;11.30;99.90;;;;;;5044571;28;20643;-73
2022/10/09 10:12:43;;;;;;;0.10;0.10;;;11.40;99.90;;;;;;5039910;28;20202;-76
2022/10/09 10:15:20;;;;;;;0.10;0.10;;;11.50;99.90;;;;;;5031521;28;20530;-72
2022/10/09 10:17:54;;;;;;;0.10;0.10;;;11.60;99.90;;;;;;5022330;28;20269;-72
2022/10/09 10:20:22;;;;;;;0.10;0.10;;;11.70;99.90;;;;;;5056103;22;20234;-75
2022/10/09 10:22:55;;;;;;;0.10;0.10;;;11.80;99.90;;;;;;5032592;28;20195;-75
2022/10/09 10:25:26;;;;;;;0.10;0.10;;;11.90;99.90;;;;;;5019957;28;20261;-76
2022/10/09 10:28:00;;;;;;;0.10;0.10;;;12.00;99.90;;;;;;5019477;28;20200;-75
2022/10/09 10:30:28;;;;;;;0.10;0.10;;;12.10;99.90;;;;;;5020029;28;20218;-75
2022/10/09 10:33:02;;;;;;;0.10;0.10;;;12.20;99.90;;;;;;5032440;28;20256;-75
2022/10/09 10:35:34;;;;;;;0.10;0.10;;;12.20;99.90;;;;;;5026487;28;20701;-75
2022/10/09 10:38:05;;;;;;;0.00;0.00;;;12.30;99.90;;;;;;5029465;28;20199;-75
2022/10/09 10:40:36;;;;;;;0.03;0.03;;;12.40;99.90;;;;;;5027595;28;20251;-76
2022/10/09 10:43:15;;;;;;;0.10;0.10;;;12.50;99.90;;;;;;5024991;28;20257;-75
2022/10/09 10:45:54;;;;;;;0.10;0.10;;;12.60;99.90;;;;;;5026413;28;20199;-75
2022/10/09 10:48:25;;;;;;;0.10;0.10;;;12.60;99.90;;;;;;5031408;28;20206;-75
2022/10/09 10:51:02;;;;;;;0.05;0.05;;;12.70;99.90;;;;;;5030575;28;20211;-76
2022/10/09 10:53:41;;;;;;;0.10;0.10;;;12.70;99.90;;;;;;5031929;28;20202;-75
2022/10/09 10:56:19;;;;;;;0.10;0.10;;;12.80;99.90;;;;;;5031867;28;20223;-75
2022/10/09 10:58:59;;;;;;;0.10;0.10;;;12.90;99.90;;;;;;5028828;28;20202;-75
2022/10/09 11:01:35;;;;;;;0.10;0.10;;;12.90;99.90;;;;;;5031329;28;20227;-75
2022/10/09 11:04:22;;;;;;;0.10;0.10;;;13.00;99.90;;;;;;5023882;28;20203;-75
2022/10/09 11:07:00;;;;;;;0.10;0.10;;;13.10;99.90;;;;;;5014800;28;20192;-75
2022/10/09 11:09:39;;;;;;;0.10;0.10;;;13.20;99.90;;;;;;5029243;28;20742;-76
2022/10/09 11:12:13;;;;;;;0.10;0.10;;;13.30;99.90;;;;;;5025228;28;20218;-75
2022/10/09 11:15:12;;;;;;;0.10;0.10;;;13.40;99.90;;;;;;5026713;28;20876;-75
2022/10/09 11:17:49;;;;;;;0.10;0.10;;;13.60;99.90;;;;;;5031649;28;20194;-76
2022/10/09 11:20:44;;;;;;;0.10;0.10;;;13.90;99.90;;;;;;5027576;28;20273;-76
2022/10/09 11:23:22;;;;;;;0.00;0.00;;;14.20;99.90;;;;;;5019631;28;20617;-76
2022/10/09 11:25:55;;;;;;;0.00;0.00;;;14.40;99.90;;;;;;5017965;28;20195;-75
2022/10/09 11:28:28;;;;;;;0.10;0.10;;;14.90;99.90;;;;;;5023620;28;20565;-76
2022/10/09 11:31:04;;;;;;;0.00;0.00;;;15.20;99.90;;;;;;5022542;28;20234;-75
2022/10/09 11:33:36;;;;;;;0.00;0.00;;;15.40;99.90;;;;;;5032028;28;20653;-75
2022/10/09 11:36:12;;;;;;;0.00;0.00;;;15.50;99.90;;;;;;5031789;28;20268;-75
2022/10/09 11:38:46;;;;;;;0.00;0.00;;;15.50;99.90;;;;;;5029154;28;20199;-75
2022/10/09 11:41:14;;;;;;;0.00;0.00;;;15.80;99.90;;;;;;5031003;28;20656;-75
2022/10/09 11:44:14;;;;;;;0.00;0.00;;;16.00;99.90;;;;;;5032383;28;20213;-75
2022/10/09 11:46:48;;;;;;;0.00;0.00;;;16.40;99.90;;;;;;5012955;28;20249;-76
2022/10/09 11:49:24;;;;;;;0.00;0.00;;;16.70;99.90;;;;;;5027670;28;20757;-76
2022/10/09 11:51:57;;;;;;;0.00;0.00;;;17.30;99.90;;;;;;5037254;28;20608;-76
2022/10/09 11:54:27;;;;;;;0.00;0.00;;;17.40;99.90;;;;;;5028683;28;20731;-76
2022/10/09 11:56:57;;;;;;;0.00;0.00;;;17.60;99.90;;;;;;5029198;28;20705;-76
2022/10/09 11:59:29;;;;;;;0.00;0.00;;;17.60;99.90;;;;;;5029048;28;20586;-76
2022/10/09 12:02:00;;;;;;;0.00;0.00;;;18.00;99.90;;;;;;5024937;28;20666;-76
2022/10/09 12:04:31;;;;;;;0.00;0.00;;;18.30;99.90;;;;;;5033558;28;20667;-76
2022/10/09 12:07:28;;;;;;;0.00;0.00;;;18.50;99.00;;;;;;5015895;28;20227;-76
2022/10/09 12:10:01;;;;;;;0.00;0.00;;;18.60;97.70;;;;;;5030453;28;20226;-76
2022/10/09 12:12:30;;;;;;;0.00;0.00;;;18.80;97.70;;;;;;5031548;28;20198;-76
2022/10/09 12:14:58;;;;;;;0.00;0.00;;;18.90;97.30;;;;;;5034394;28;20235;-76
2022/10/09 12:17:37;;;;;;;0.00;0.00;;;18.80;97.10;;;;;;5035155;28;20269;-76
2022/10/09 12:20:08;;;;;;;0.00;0.00;;;18.60;98.00;;;;;;5043147;28;20231;-77
2022/10/09 12:22:40;;;;;;;0.00;0.00;;;18.90;97.00;;;;;;5050454;28;20696;-77
2022/10/09 12:25:19;;;;;;;0.00;0.00;;;19.20;96.50;;;;;;5047980;28;20199;-75
2022/10/09 12:27:52;;;;;;;0.00;0.00;;;19.30;96.20;;;;;;5050883;28;20226;-76
2022/10/09 12:30:22;;;;;;;0.00;0.00;;;19.50;96.50;;;;;;5044675;28;20257;-76
2022/10/09 12:32:56;;;;;;;0.00;0.00;;;19.60;94.90;;;;;;5035354;28;20255;-76
2022/10/09 12:35:27;;;;;;;0.00;0.00;;;19.50;95.10;;;;;;5054847;28;20285;-76
2022/10/09 12:37:55;;;;;;;0.00;0.00;;;19.50;95.50;;;;;;5048215;28;20199;-76
2022/10/09 12:40:26;;;;;;;0.00;0.00;;;19.50;95.20;;;;;;5051307;28;20210;-76
2022/10/09 12:42:55;;;;;;;0.00;0.00;;;19.70;94.40;;;;;;5042819;28;20214;-76
2022/10/09 12:45:26;;;;;;;0.00;0.00;;;19.90;95.50;;;;;;5034813;28;20198;-76
2022/10/09 12:47:56;;;;;;;0.00;0.00;;;20.20;95.10;;;;;;5029903;28;20246;-76
2022/10/09 12:50:27;;;;;;;0.00;0.00;;;20.20;93.50;;;;;;5017192;28;20215;-76
2022/10/09 12:52:58;;;;;;;0.00;0.00;;;20.10;94.70;;;;;;5027070;28;20195;-76
2022/10/09 12:55:28;;;;;;;0.00;0.00;;;20.10;93.40;;;;;;5016978;28;20257;-76
2022/10/09 12:58:02;;;;;;;0.00;0.00;;;20.00;93.60;;;;;;5013636;28;20215;-76
2022/10/09 13:00:31;;;;;;;0.00;0.00;;;19.90;94.10;;;;;;5030362;28;20736;-76
2022/10/09 13:03:00;;;;;;;0.00;0.00;;;19.80;94.20;;;;;;5022605;28;20203;-76
2022/10/09 13:05:36;;;;;;;0.00;0.00;;;20.00;94.70;;;;;;5024618;28;20210;-76
2022/10/09 13:08:05;;;;;;;0.00;0.00;;;20.30;95.10;;;;;;5026083;28;20605;-77
2022/10/09 13:10:33;;;;;;;0.00;0.00;;;20.70;95.70;;;;;;5031856;28;20238;-76
2022/10/09 13:13:01;;;;;;;0.00;0.00;;;20.90;94.80;;;;;;5033782;28;20673;-76
2022/10/09 13:15:32;;;;;;;0.00;0.00;;;20.80;93.60;;;;;;5033071;28;20763;-76
2022/10/09 13:18:13;;;;;;;0.00;0.00;;;20.40;94.00;;;;;;5024895;28;20775;-76